createdAt,value
2018-03-06T00:00:03.033Z,992.92
2018-03-06T00:01:03.042Z,992.91
2018-03-06T00:02:03.054Z,992.87
2018-03-06T00:03:03.067Z,992.88
2018-03-06T00:04:03.081Z,992.88
2018-03-06T00:05:03.093Z,992.88
2018-03-06T00:06:03.105Z,992.91
2018-03-06T00:07:03.119Z,992.88
2018-03-06T00:08:03.133Z,992.88
2018-03-06T00:09:03.146Z,992.88
2018-03-06T00:10:03.159Z,992.86
2018-03-06T00:11:03.171Z,992.85
2018-03-06T00:12:03.184Z,992.83
2018-03-06T00:13:03.199Z,992.83
2018-03-06T00:14:03.210Z,992.8
2018-03-06T00:15:03.224Z,992.83
2018-03-06T00:16:03.236Z,992.88
2018-03-06T00:17:03.248Z,992.82
2018-03-06T00:18:03.262Z,992.87
2018-03-06T00:19:03.275Z,992.81
2018-03-06T00:20:03.288Z,992.86
2018-03-06T00:21:03.301Z,992.81
2018-03-06T00:22:03.313Z,992.82
2018-03-06T00:23:03.326Z,992.78
2018-03-06T00:24:03.338Z,992.77
2018-03-06T00:26:03.365Z,992.76
2018-03-06T00:27:03.378Z,992.74
2018-03-06T00:28:03.390Z,992.73
2018-03-06T00:29:03.404Z,992.72
2018-03-06T00:30:03.416Z,992.67
2018-03-06T00:31:03.430Z,992.65
2018-03-06T00:32:03.442Z,992.67
2018-03-06T00:33:03.467Z,992.68
2018-03-06T00:34:03.468Z,992.66
2018-03-06T00:35:03.480Z,992.62
2018-03-06T00:36:03.494Z,992.62
2018-03-06T00:37:03.506Z,992.71
2018-03-06T00:38:03.520Z,992.65
2018-03-06T00:39:03.532Z,992.61
2018-03-06T00:40:03.545Z,992.58
2018-03-06T00:42:03.570Z,992.57
2018-03-06T00:43:03.583Z,992.53
2018-03-06T00:44:03.596Z,992.47
2018-03-06T00:45:03.609Z,992.51
2018-03-06T00:46:03.621Z,992.51
2018-03-06T00:47:03.634Z,992.52
2018-03-06T00:48:03.649Z,992.47
2018-03-06T00:49:03.661Z,992.47
2018-03-06T00:50:03.672Z,992.47
2018-03-06T00:51:03.686Z,992.45
2018-03-06T00:52:03.698Z,992.44
2018-03-06T00:53:03.711Z,992.46
2018-03-06T00:54:03.723Z,992.45
2018-03-06T00:55:03.736Z,992.4
2018-03-06T00:56:03.749Z,992.41
2018-03-06T00:58:03.775Z,992.37
2018-03-06T00:59:03.787Z,992.36
2018-03-06T01:00:03.800Z,992.33
2018-03-06T01:01:03.811Z,992.34
2018-03-06T01:02:03.824Z,992.31
2018-03-06T01:03:03.837Z,992.31
2018-03-06T01:04:03.851Z,992.3
2018-03-06T01:05:03.862Z,992.31
2018-03-06T01:06:03.875Z,992.31
2018-03-06T01:07:03.888Z,992.31
2018-03-06T01:08:03.900Z,992.26
2018-03-06T01:09:03.913Z,992.3
2018-03-06T01:10:03.926Z,992.25
2018-03-06T01:11:03.938Z,992.24
2018-03-06T01:12:03.951Z,992.31
2018-03-06T01:14:03.976Z,992.28
2018-03-06T01:15:03.989Z,992.27
2018-03-06T01:16:04.001Z,992.27
2018-03-06T01:17:04.013Z,992.29
2018-03-06T01:18:04.027Z,992.25
2018-03-06T01:19:04.039Z,992.27
2018-03-06T01:20:04.052Z,992.2
2018-03-06T01:21:04.063Z,992.22
2018-03-06T01:22:04.077Z,992.21
2018-03-06T01:23:04.089Z,992.19
2018-03-06T01:24:04.102Z,992.2
2018-03-06T01:25:04.115Z,992.17
2018-03-06T01:26:04.127Z,992.19
2018-03-06T01:27:04.141Z,992.18
2018-03-06T01:29:04.166Z,992.16
2018-03-06T01:30:04.178Z,992.2
2018-03-06T01:31:04.190Z,992.21
2018-03-06T01:32:04.204Z,992.18
2018-03-06T01:33:04.217Z,992.17
2018-03-06T01:34:04.228Z,992.15
2018-03-06T01:35:04.241Z,992.12
2018-03-06T01:36:04.253Z,992.14
2018-03-06T01:37:04.266Z,992.14
2018-03-06T01:38:04.279Z,992.11
2018-03-06T01:39:04.291Z,992.1
2018-03-06T01:40:04.304Z,992.08
2018-03-06T01:41:04.315Z,992.05
2018-03-06T01:42:04.329Z,992.03
2018-03-06T01:43:04.341Z,992.04
2018-03-06T01:44:04.354Z,992.05
2018-03-06T01:45:04.366Z,992.05
2018-03-06T01:46:04.379Z,992.05
2018-03-06T01:47:04.391Z,992.03
2018-03-06T01:48:04.422Z,992.01
2018-03-06T01:49:04.415Z,992.03
2018-03-06T01:50:04.428Z,992.03
2018-03-06T01:51:04.441Z,992.05
2018-03-06T01:52:04.452Z,992.02
2018-03-06T01:53:04.465Z,992
2018-03-06T01:54:04.478Z,992.01
2018-03-06T01:55:04.491Z,992
2018-03-06T01:56:04.503Z,991.98
2018-03-06T01:57:04.516Z,991.95
2018-03-06T01:58:04.528Z,991.99
2018-03-06T01:59:04.539Z,991.99
2018-03-06T02:01:04.565Z,991.95
2018-03-06T02:02:04.577Z,991.93
2018-03-06T02:03:04.589Z,991.91
2018-03-06T02:04:04.606Z,991.91
2018-03-06T02:05:04.615Z,991.94
2018-03-06T02:06:04.629Z,991.91
2018-03-06T02:07:04.643Z,991.92
2018-03-06T02:08:04.651Z,991.89
2018-03-06T02:09:04.664Z,991.89
2018-03-06T02:10:04.675Z,991.9
2018-03-06T02:11:04.687Z,991.88
2018-03-06T02:12:04.702Z,991.88
2018-03-06T02:13:04.713Z,991.85
2018-03-06T02:14:04.728Z,991.87
2018-03-06T02:15:04.738Z,991.84
2018-03-06T02:17:04.763Z,991.79
2018-03-06T02:18:04.775Z,991.83
2018-03-06T02:19:04.787Z,991.8
2018-03-06T02:20:04.800Z,991.8
2018-03-06T02:21:04.812Z,991.79
2018-03-06T02:22:04.824Z,991.79
2018-03-06T02:23:04.837Z,991.78
2018-03-06T02:24:04.849Z,991.75
2018-03-06T02:25:04.860Z,991.75
2018-03-06T02:26:04.873Z,991.71
2018-03-06T02:27:04.886Z,991.71
2018-03-06T02:28:04.898Z,991.65
2018-03-06T02:29:04.910Z,991.71
2018-03-06T02:30:04.923Z,991.61
2018-03-06T02:31:04.938Z,991.63
2018-03-06T02:33:04.959Z,991.6
2018-03-06T02:34:04.971Z,991.59
2018-03-06T02:35:04.985Z,991.62
2018-03-06T02:36:04.997Z,991.63
2018-03-06T02:37:05.008Z,991.58
2018-03-06T02:38:05.020Z,991.57
2018-03-06T02:39:05.033Z,991.52
2018-03-06T02:40:05.044Z,991.54
2018-03-06T02:41:05.056Z,991.51
2018-03-06T02:42:05.069Z,991.5
2018-03-06T02:43:05.081Z,991.5
2018-03-06T02:44:05.094Z,991.52
2018-03-06T02:45:05.115Z,991.44
2018-03-06T02:46:05.118Z,991.47
2018-03-06T02:47:05.130Z,991.43
2018-03-06T02:49:05.155Z,991.42
2018-03-06T02:50:05.167Z,991.4
2018-03-06T02:51:05.180Z,991.41
2018-03-06T02:52:05.192Z,991.42
2018-03-06T02:53:05.203Z,991.42
2018-03-06T02:54:05.216Z,991.46
2018-03-06T02:55:05.228Z,991.41
2018-03-06T02:56:05.241Z,991.37
2018-03-06T02:57:05.253Z,991.38
2018-03-06T02:58:05.263Z,991.41
2018-03-06T02:59:05.277Z,991.42
2018-03-06T03:00:05.288Z,991.47
2018-03-06T03:01:05.303Z,991.47
2018-03-06T03:02:05.313Z,991.42
2018-03-06T03:04:05.339Z,991.44
2018-03-06T03:05:05.350Z,991.44
2018-03-06T03:06:05.362Z,991.45
2018-03-06T03:07:05.374Z,991.42
2018-03-06T03:08:05.387Z,991.41
2018-03-06T03:09:05.399Z,991.4
2018-03-06T03:10:05.411Z,991.39
2018-03-06T03:11:05.424Z,991.38
2018-03-06T03:12:05.437Z,991.35
2018-03-06T03:13:05.447Z,991.41
2018-03-06T03:14:05.459Z,991.42
2018-03-06T03:15:05.472Z,991.45
2018-03-06T03:16:05.483Z,991.42
2018-03-06T03:17:05.496Z,991.44
2018-03-06T03:18:05.508Z,991.4
2018-03-06T03:19:05.520Z,991.42
2018-03-06T03:20:05.532Z,991.43
2018-03-06T03:21:05.548Z,991.42
2018-03-06T03:22:05.557Z,991.38
2018-03-06T03:23:05.566Z,991.37
2018-03-06T03:24:05.580Z,991.39
2018-03-06T03:25:05.592Z,991.44
2018-03-06T03:26:05.606Z,991.44
2018-03-06T03:27:05.615Z,991.42
2018-03-06T03:28:05.629Z,991.37
2018-03-06T03:29:05.641Z,991.41
2018-03-06T03:30:05.658Z,991.37
2018-03-06T03:31:05.666Z,991.34
2018-03-06T03:32:05.777Z,991.35
2018-03-06T03:33:05.689Z,991.36
2018-03-06T03:34:05.700Z,991.31
2018-03-06T03:36:05.725Z,991.33
2018-03-06T03:37:05.739Z,991.3
2018-03-06T03:38:05.749Z,991.28
2018-03-06T03:39:05.764Z,991.33
2018-03-06T03:40:05.774Z,991.28
2018-03-06T03:41:05.786Z,991.24
2018-03-06T03:42:05.797Z,991.22
2018-03-06T03:43:05.812Z,991.23
2018-03-06T03:44:05.822Z,991.19
2018-03-06T03:45:05.833Z,991.24
2018-03-06T03:46:05.845Z,991.17
2018-03-06T03:47:05.858Z,991.18
2018-03-06T03:48:05.869Z,991.18
2018-03-06T03:49:05.881Z,991.15
2018-03-06T03:50:05.893Z,991.14
2018-03-06T03:52:05.920Z,991.11
2018-03-06T03:53:05.929Z,991.13
2018-03-06T03:54:05.942Z,991.13
2018-03-06T03:55:05.954Z,991.09
2018-03-06T03:56:05.965Z,991.15
2018-03-06T03:57:05.981Z,991.15
2018-03-06T03:58:05.989Z,991.14
2018-03-06T03:59:06.005Z,991.12
2018-03-06T04:00:06.013Z,991.15
2018-03-06T04:01:06.025Z,991.09
2018-03-06T04:02:06.038Z,991.13
2018-03-06T04:03:06.052Z,991.1
2018-03-06T04:04:06.062Z,991.07
2018-03-06T04:05:06.073Z,991.09
2018-03-06T04:06:06.085Z,991.07
2018-03-06T04:08:06.108Z,991.03
2018-03-06T04:09:06.122Z,991.05
2018-03-06T04:10:06.133Z,991.08
2018-03-06T04:11:06.144Z,991.04
2018-03-06T04:12:06.157Z,991.05
2018-03-06T04:13:06.169Z,991.06
2018-03-06T04:14:06.181Z,991.03
2018-03-06T04:15:06.193Z,991.05
2018-03-06T04:16:06.208Z,991.06
2018-03-06T04:17:06.217Z,991.04
2018-03-06T04:18:06.228Z,991.08
2018-03-06T04:19:06.240Z,991.04
2018-03-06T04:20:06.252Z,991.06
2018-03-06T04:21:06.265Z,991.03
2018-03-06T04:22:06.276Z,991.04
2018-03-06T04:24:06.300Z,991.02
2018-03-06T04:25:06.313Z,991.02
2018-03-06T04:26:06.322Z,991.01
2018-03-06T04:27:06.336Z,991.02
2018-03-06T04:28:06.348Z,991.01
2018-03-06T04:29:06.359Z,990.98
2018-03-06T04:30:06.373Z,990.99
2018-03-06T04:31:06.384Z,990.99
2018-03-06T04:32:06.397Z,991.03
2018-03-06T04:33:06.405Z,990.99
2018-03-06T04:34:06.419Z,990.98
2018-03-06T04:35:06.430Z,991
2018-03-06T04:36:06.443Z,990.98
2018-03-06T04:37:06.455Z,990.97
2018-03-06T04:39:06.479Z,990.93
2018-03-06T04:40:06.490Z,990.93
2018-03-06T04:41:06.503Z,990.92
2018-03-06T04:42:06.514Z,990.9
2018-03-06T04:43:06.527Z,990.93
2018-03-06T04:44:06.537Z,990.9
2018-03-06T04:45:06.550Z,990.86
2018-03-06T04:46:06.562Z,990.9
2018-03-06T04:47:06.573Z,990.92
2018-03-06T04:48:06.585Z,990.88
2018-03-06T04:49:06.597Z,990.85
2018-03-06T04:50:06.610Z,990.82
2018-03-06T04:51:06.620Z,990.83
2018-03-06T04:52:06.633Z,990.82
2018-03-06T04:53:06.649Z,990.85
2018-03-06T04:54:06.660Z,990.85
2018-03-06T04:55:06.668Z,990.84
2018-03-06T04:56:06.683Z,990.85
2018-03-06T04:57:06.692Z,990.85
2018-03-06T04:58:06.703Z,990.84
2018-03-06T04:59:06.715Z,990.86
2018-03-06T05:00:06.727Z,990.87
2018-03-06T05:01:06.740Z,990.87
2018-03-06T05:02:06.754Z,990.9
2018-03-06T05:03:06.763Z,990.86
2018-03-06T05:04:06.775Z,990.9
2018-03-06T05:05:06.787Z,990.87
2018-03-06T05:06:06.800Z,990.84
2018-03-06T05:07:06.810Z,990.89
2018-03-06T05:08:06.822Z,990.84
2018-03-06T05:09:06.831Z,990.85
2018-03-06T05:11:06.882Z,990.82
2018-03-06T05:12:06.869Z,990.78
2018-03-06T05:13:06.880Z,990.8
2018-03-06T05:14:06.895Z,990.76
2018-03-06T05:15:06.904Z,990.74
2018-03-06T05:16:06.917Z,990.73
2018-03-06T05:17:06.927Z,990.67
2018-03-06T05:18:06.940Z,990.69
2018-03-06T05:19:06.951Z,990.64
2018-03-06T05:20:06.962Z,990.68
2018-03-06T05:21:06.975Z,990.64
2018-03-06T05:22:06.987Z,990.61
2018-03-06T05:23:06.998Z,990.68
2018-03-06T05:24:07.009Z,990.7
2018-03-06T05:25:07.022Z,990.67
2018-03-06T05:27:07.060Z,990.73
2018-03-06T05:28:07.056Z,990.74
2018-03-06T05:29:07.068Z,990.74
2018-03-06T05:30:07.080Z,990.76
2018-03-06T05:31:07.092Z,990.77
2018-03-06T05:32:07.104Z,990.74
2018-03-06T05:33:07.116Z,990.72
2018-03-06T05:34:07.127Z,990.72
2018-03-06T05:35:07.138Z,990.7
2018-03-06T05:36:07.150Z,990.72
2018-03-06T05:37:07.162Z,990.69
2018-03-06T05:38:07.175Z,990.67
2018-03-06T05:39:07.186Z,990.68
2018-03-06T05:40:07.196Z,990.64
2018-03-06T05:41:07.211Z,990.64
2018-03-06T05:43:07.234Z,990.65
2018-03-06T05:44:07.244Z,990.66
2018-03-06T05:45:07.257Z,990.68
2018-03-06T05:46:07.267Z,990.68
2018-03-06T05:47:07.280Z,990.69
2018-03-06T05:48:07.391Z,990.69
2018-03-06T05:49:07.303Z,990.68
2018-03-06T05:50:07.321Z,990.67
2018-03-06T05:51:07.327Z,990.67
2018-03-06T05:52:07.338Z,990.66
2018-03-06T05:53:07.350Z,990.68
2018-03-06T05:54:07.361Z,990.64
2018-03-06T05:55:07.373Z,990.64
2018-03-06T05:56:07.385Z,990.69
2018-03-06T05:57:07.396Z,990.68
2018-03-06T05:59:07.421Z,990.69
2018-03-06T06:00:07.432Z,990.74
2018-03-06T06:01:07.443Z,990.76
2018-03-06T06:02:07.456Z,990.75
2018-03-06T06:03:07.468Z,990.75
2018-03-06T06:04:07.479Z,990.72
2018-03-06T06:05:07.491Z,990.74
2018-03-06T06:06:07.503Z,990.74
2018-03-06T06:07:07.515Z,990.71
2018-03-06T06:08:07.526Z,990.78
2018-03-06T06:09:07.539Z,990.76
2018-03-06T06:10:07.550Z,990.83
2018-03-06T06:11:07.563Z,990.83
2018-03-06T06:12:07.574Z,990.81
2018-03-06T06:14:07.600Z,990.84
2018-03-06T06:15:07.611Z,990.87
2018-03-06T06:16:07.623Z,990.85
2018-03-06T06:17:07.636Z,990.83
2018-03-06T06:18:07.748Z,990.85
2018-03-06T06:19:07.658Z,990.86
2018-03-06T06:20:07.673Z,990.84
2018-03-06T06:21:07.684Z,990.86
2018-03-06T06:22:07.694Z,990.88
2018-03-06T06:23:07.712Z,990.89
2018-03-06T06:24:07.720Z,990.91
2018-03-06T06:25:07.736Z,990.86
2018-03-06T06:26:07.743Z,990.86
2018-03-06T06:27:07.757Z,990.89
2018-03-06T06:28:07.770Z,990.91
2018-03-06T06:29:07.781Z,990.9
2018-03-06T06:30:07.792Z,990.93
2018-03-06T06:31:07.805Z,990.95
2018-03-06T06:32:07.819Z,990.97
2018-03-06T06:33:07.830Z,990.97
2018-03-06T06:34:07.843Z,990.97
2018-03-06T06:35:07.858Z,990.96
2018-03-06T06:36:07.869Z,990.94
2018-03-06T06:37:07.881Z,990.94
2018-03-06T06:38:07.894Z,990.97
2018-03-06T06:39:07.907Z,990.98
2018-03-06T06:40:07.919Z,990.99
2018-03-06T06:41:07.935Z,991.02
2018-03-06T06:42:07.946Z,991
2018-03-06T06:43:07.959Z,990.99
2018-03-06T06:44:07.972Z,990.97
2018-03-06T06:46:07.998Z,990.94
2018-03-06T06:47:08.111Z,990.94
2018-03-06T06:48:08.025Z,990.93
2018-03-06T06:49:08.038Z,990.93
2018-03-06T06:50:08.052Z,990.94
2018-03-06T06:51:08.077Z,990.9
2018-03-06T06:52:08.079Z,990.92
2018-03-06T06:53:08.093Z,990.91
2018-03-06T06:54:08.106Z,990.93
2018-03-06T06:55:08.119Z,990.87
2018-03-06T06:56:08.133Z,990.91
2018-03-06T06:57:08.146Z,990.92
2018-03-06T06:58:08.161Z,990.94
2018-03-06T06:59:08.174Z,990.95
2018-03-06T07:00:08.189Z,990.93
2018-03-06T07:02:08.217Z,990.93
2018-03-06T07:03:08.234Z,990.95
2018-03-06T07:04:08.246Z,990.96
2018-03-06T07:05:08.262Z,990.95
2018-03-06T07:06:08.273Z,990.93
2018-03-06T07:07:08.287Z,990.9
2018-03-06T07:08:08.302Z,990.94
2018-03-06T07:09:08.316Z,990.94
2018-03-06T07:10:08.336Z,990.93
2018-03-06T07:11:08.346Z,990.91
2018-03-06T07:12:08.361Z,990.97
2018-03-06T07:13:08.376Z,990.94
2018-03-06T07:14:08.390Z,990.93
2018-03-06T07:15:08.405Z,990.97
2018-03-06T07:16:08.420Z,991.01
2018-03-06T07:18:08.450Z,991
2018-03-06T07:19:08.465Z,990.99
2018-03-06T07:20:08.481Z,991.05
2018-03-06T07:21:08.495Z,991.05
2018-03-06T07:22:08.515Z,991
2018-03-06T07:23:08.544Z,991.04
2018-03-06T07:24:08.542Z,991
2018-03-06T07:25:08.557Z,990.99
2018-03-06T07:26:08.572Z,990.99
2018-03-06T07:27:08.588Z,991.01
2018-03-06T07:28:08.603Z,991.04
2018-03-06T07:29:08.619Z,991.06
2018-03-06T07:30:08.635Z,991.06
2018-03-06T07:31:08.655Z,991.06
2018-03-06T07:32:08.670Z,991.08
2018-03-06T07:34:08.701Z,991.08
2018-03-06T07:35:08.715Z,991.06
2018-03-06T07:36:08.728Z,991.09
2018-03-06T07:37:08.745Z,991.06
2018-03-06T07:38:08.815Z,991.09
2018-03-06T07:39:08.777Z,991.07
2018-03-06T07:40:08.794Z,991.08
2018-03-06T07:41:08.808Z,991.08
2018-03-06T07:42:08.825Z,991.08
2018-03-06T07:43:08.841Z,991.09
2018-03-06T07:44:08.858Z,991.09
2018-03-06T07:45:08.876Z,991.08
2018-03-06T07:46:08.889Z,991.04
2018-03-06T07:47:08.906Z,991.03
2018-03-06T07:49:08.938Z,991
2018-03-06T07:50:08.954Z,991.03
2018-03-06T07:51:09.012Z,991.03
2018-03-06T07:52:08.986Z,991.02
2018-03-06T07:53:09.003Z,990.99
2018-03-06T07:54:09.021Z,991.01
2018-03-06T07:55:09.035Z,990.99
2018-03-06T07:56:09.051Z,990.99
2018-03-06T07:57:09.073Z,990.97
2018-03-06T07:58:09.082Z,990.95
2018-03-06T07:59:09.100Z,990.96
2018-03-06T08:00:09.119Z,990.98
2018-03-06T08:01:09.133Z,991
2018-03-06T08:02:09.148Z,990.98
2018-03-06T08:03:09.164Z,990.95
2018-03-06T08:04:09.182Z,990.97
2018-03-06T08:05:09.206Z,990.96
2018-03-06T08:06:09.213Z,990.98
2018-03-06T08:07:09.233Z,990.92
2018-03-06T08:08:09.246Z,990.89
2018-03-06T08:09:09.264Z,990.9
2018-03-06T08:10:09.280Z,990.87
2018-03-06T08:11:09.298Z,990.87
2018-03-06T08:12:09.313Z,990.85
2018-03-06T08:13:09.334Z,990.9
2018-03-06T08:14:09.347Z,990.89
2018-03-06T08:15:09.364Z,990.89
2018-03-06T08:16:09.381Z,990.87
2018-03-06T08:17:09.398Z,990.91
2018-03-06T08:18:09.415Z,990.86
2018-03-06T08:19:09.432Z,990.85
2018-03-06T08:21:09.465Z,990.86
2018-03-06T08:22:09.484Z,990.87
2018-03-06T08:23:09.501Z,990.87
2018-03-06T08:24:09.535Z,990.86
2018-03-06T08:25:09.536Z,990.88
2018-03-06T08:26:09.553Z,990.89
2018-03-06T08:27:09.569Z,990.89
2018-03-06T08:28:09.587Z,990.89
2018-03-06T08:29:09.605Z,990.88
2018-03-06T08:30:09.622Z,990.89
2018-03-06T08:31:09.639Z,990.88
2018-03-06T08:32:09.657Z,990.86
2018-03-06T08:33:09.675Z,990.81
2018-03-06T08:34:09.692Z,990.85
2018-03-06T08:35:09.709Z,990.83
2018-03-06T08:37:09.744Z,990.78
2018-03-06T08:38:09.761Z,990.79
2018-03-06T08:39:09.779Z,990.84
2018-03-06T08:40:09.797Z,990.84
2018-03-06T08:41:09.814Z,990.86
2018-03-06T08:42:09.834Z,990.82
2018-03-06T08:43:09.850Z,990.8
2018-03-06T08:44:09.869Z,990.83
2018-03-06T08:45:09.884Z,990.86
2018-03-06T08:46:10.002Z,990.87
2018-03-06T08:47:09.920Z,990.83
2018-03-06T08:48:09.938Z,990.85
2018-03-06T08:49:09.956Z,990.81
2018-03-06T08:50:09.977Z,990.85
2018-03-06T08:51:09.991Z,990.86
2018-03-06T08:53:10.031Z,990.81
2018-03-06T08:54:10.045Z,990.83
2018-03-06T08:55:10.063Z,990.86
2018-03-06T08:56:10.080Z,990.82
2018-03-06T08:57:10.097Z,990.83
2018-03-06T08:58:10.116Z,990.83
2018-03-06T08:59:10.136Z,990.84
2018-03-06T09:00:10.152Z,990.83
2018-03-06T09:01:10.170Z,990.8
2018-03-06T09:02:10.188Z,990.8
2018-03-06T09:03:10.204Z,990.83
2018-03-06T09:04:10.223Z,990.84
2018-03-06T09:05:10.242Z,990.8
2018-03-06T09:06:10.260Z,990.85
2018-03-06T09:07:10.277Z,990.85
2018-03-06T09:09:10.314Z,990.79
2018-03-06T09:10:10.331Z,990.76
2018-03-06T09:11:10.351Z,990.8
2018-03-06T09:12:10.398Z,990.79
2018-03-06T09:13:10.386Z,990.77
2018-03-06T09:14:10.402Z,990.82
2018-03-06T09:15:10.425Z,990.8
2018-03-06T09:16:10.440Z,990.79
2018-03-06T09:17:10.458Z,990.82
2018-03-06T09:18:10.478Z,990.8
2018-03-06T09:19:10.494Z,990.78
2018-03-06T09:20:10.512Z,990.81
2018-03-06T09:21:10.531Z,990.82
2018-03-06T09:22:10.550Z,990.78
2018-03-06T09:24:10.586Z,990.76
2018-03-06T09:25:10.604Z,990.76
2018-03-06T09:26:10.621Z,990.78
2018-03-06T09:27:10.640Z,990.75
2018-03-06T09:28:10.658Z,990.78
2018-03-06T09:29:10.676Z,990.77
2018-03-06T09:30:10.694Z,990.75
2018-03-06T09:31:10.713Z,990.75
2018-03-06T09:32:10.730Z,990.76
2018-03-06T09:33:10.750Z,990.71
2018-03-06T09:34:10.767Z,990.69
2018-03-06T09:35:10.784Z,990.71
2018-03-06T09:36:10.804Z,990.7
2018-03-06T09:37:10.822Z,990.68
2018-03-06T09:38:10.840Z,990.68
2018-03-06T09:39:10.859Z,990.68
2018-03-06T09:40:10.881Z,990.65
2018-03-06T09:41:10.895Z,990.66
2018-03-06T09:42:10.917Z,990.66
2018-03-06T09:43:10.931Z,990.63
2018-03-06T09:44:10.949Z,990.63
2018-03-06T09:45:10.968Z,990.62
2018-03-06T09:46:11.034Z,990.65
2018-03-06T09:47:11.004Z,990.58
2018-03-06T09:48:11.021Z,990.61
2018-03-06T09:49:11.140Z,990.6
2018-03-06T09:50:11.059Z,990.6
2018-03-06T09:51:11.085Z,990.59
2018-03-06T09:52:11.094Z,990.56
2018-03-06T09:53:11.113Z,990.56
2018-03-06T09:54:11.131Z,990.58
2018-03-06T09:56:11.167Z,990.59
2018-03-06T09:57:11.192Z,990.58
2018-03-06T09:58:11.203Z,990.59
2018-03-06T09:59:11.221Z,990.56
2018-03-06T10:00:11.240Z,990.56
2018-03-06T10:01:11.259Z,990.53
2018-03-06T10:02:11.275Z,990.54
2018-03-06T10:03:11.295Z,990.54
2018-03-06T10:04:11.313Z,990.52
2018-03-06T10:05:11.331Z,990.52
2018-03-06T10:06:11.349Z,990.53
2018-03-06T10:07:11.368Z,990.51
2018-03-06T10:08:11.437Z,990.54
2018-03-06T10:09:11.404Z,990.57
2018-03-06T10:10:11.424Z,990.52
2018-03-06T10:12:11.461Z,990.53
2018-03-06T10:13:11.479Z,990.48
2018-03-06T10:14:11.498Z,990.52
2018-03-06T10:15:11.517Z,990.49
2018-03-06T10:16:11.535Z,990.48
2018-03-06T10:17:11.557Z,990.47
2018-03-06T10:18:11.572Z,990.46
2018-03-06T10:19:11.592Z,990.45
2018-03-06T10:20:11.609Z,990.46
2018-03-06T10:21:11.629Z,990.45
2018-03-06T10:22:11.647Z,990.46
2018-03-06T10:23:11.666Z,990.45
2018-03-06T10:24:11.685Z,990.45
2018-03-06T10:25:11.703Z,990.4
2018-03-06T10:26:11.722Z,990.44
2018-03-06T10:28:11.760Z,990.41
2018-03-06T10:29:11.779Z,990.42
2018-03-06T10:30:11.797Z,990.33
2018-03-06T10:31:11.841Z,990.34
2018-03-06T10:32:11.834Z,990.32
2018-03-06T10:33:11.852Z,990.29
2018-03-06T10:34:11.872Z,990.28
2018-03-06T10:35:11.889Z,990.3
2018-03-06T10:36:11.908Z,990.27
2018-03-06T10:37:11.927Z,990.22
2018-03-06T10:38:11.948Z,990.22
2018-03-06T10:39:11.963Z,990.24
2018-03-06T10:40:11.983Z,990.21
2018-03-06T10:41:12.002Z,990.17
2018-03-06T10:42:12.019Z,990.16
2018-03-06T10:44:12.058Z,990.19
2018-03-06T10:45:12.076Z,990.2
2018-03-06T10:46:12.095Z,990.18
2018-03-06T10:47:12.114Z,990.21
2018-03-06T10:48:12.132Z,990.21
2018-03-06T10:49:12.150Z,990.2
2018-03-06T10:50:12.169Z,990.19
2018-03-06T10:51:12.188Z,990.17
2018-03-06T10:52:12.208Z,990.19
2018-03-06T10:53:12.262Z,990.16
2018-03-06T10:54:12.244Z,990.12
2018-03-06T10:55:12.308Z,990.16
2018-03-06T10:56:12.282Z,990.08
2018-03-06T10:57:12.300Z,990.09
2018-03-06T10:59:12.389Z,990.04
2018-03-06T11:00:12.357Z,990.06
2018-03-06T11:01:12.432Z,990.05
2018-03-06T11:02:12.427Z,990.02
2018-03-06T11:03:12.414Z,990.03
2018-03-06T11:04:12.431Z,990
2018-03-06T11:05:12.451Z,990
2018-03-06T11:06:12.469Z,989.99
2018-03-06T11:07:12.487Z,990.04
2018-03-06T11:08:12.565Z,990.02
2018-03-06T11:09:12.524Z,990.03
2018-03-06T11:10:12.544Z,990.01
2018-03-06T11:11:12.562Z,989.98
2018-03-06T11:12:12.581Z,990
2018-03-06T11:13:12.600Z,989.97
2018-03-06T11:14:12.619Z,989.95
2018-03-06T11:15:12.638Z,989.98
2018-03-06T11:16:12.656Z,989.93
2018-03-06T11:17:12.676Z,989.94
2018-03-06T11:18:12.693Z,989.92
2018-03-06T11:19:12.713Z,989.96
2018-03-06T11:20:12.731Z,989.93
2018-03-06T11:21:12.752Z,989.91
2018-03-06T11:22:12.769Z,989.89
2018-03-06T11:23:12.788Z,989.88
2018-03-06T11:24:12.813Z,989.82
2018-03-06T11:25:12.828Z,989.81
2018-03-06T11:26:12.845Z,989.78
2018-03-06T11:27:12.864Z,989.79
2018-03-06T11:28:12.881Z,989.77
2018-03-06T11:29:12.900Z,989.76
2018-03-06T11:31:12.939Z,989.73
2018-03-06T11:32:12.958Z,989.72
2018-03-06T11:33:12.976Z,989.73
2018-03-06T11:34:12.995Z,989.69
2018-03-06T11:35:13.014Z,989.71
2018-03-06T11:36:13.035Z,989.62
2018-03-06T11:37:13.052Z,989.66
2018-03-06T11:38:13.079Z,989.67
2018-03-06T11:39:13.089Z,989.68
2018-03-06T11:40:13.108Z,989.65
2018-03-06T11:41:13.130Z,989.63
2018-03-06T11:42:13.149Z,989.64
2018-03-06T11:43:13.165Z,989.61
2018-03-06T11:44:13.182Z,989.59
2018-03-06T11:45:13.203Z,989.58
2018-03-06T11:47:13.241Z,989.53
2018-03-06T11:48:13.259Z,989.52
2018-03-06T11:49:13.278Z,989.5
2018-03-06T11:50:13.298Z,989.53
2018-03-06T11:51:13.315Z,989.52
2018-03-06T11:52:13.335Z,989.47
2018-03-06T11:53:13.356Z,989.51
2018-03-06T11:54:13.374Z,989.5
2018-03-06T11:55:13.392Z,989.53
2018-03-06T11:56:13.411Z,989.53
2018-03-06T11:57:13.430Z,989.53
2018-03-06T11:58:13.449Z,989.48
2018-03-06T11:59:13.472Z,989.51
2018-03-06T12:00:13.487Z,989.51
2018-03-06T12:01:13.506Z,989.45
2018-03-06T12:03:13.545Z,989.46
2018-03-06T12:04:13.563Z,989.45
2018-03-06T12:05:13.582Z,989.42
2018-03-06T12:06:13.601Z,989.41
2018-03-06T12:07:13.629Z,989.37
2018-03-06T12:08:13.639Z,989.42
2018-03-06T12:09:13.658Z,989.35
2018-03-06T12:10:13.676Z,989.33
2018-03-06T12:11:13.697Z,989.31
2018-03-06T12:12:13.715Z,989.34
2018-03-06T12:13:13.732Z,989.34
2018-03-06T12:14:13.752Z,989.33
2018-03-06T12:15:13.773Z,989.31
2018-03-06T12:16:13.834Z,989.28
2018-03-06T12:17:13.809Z,989.3
2018-03-06T12:19:13.851Z,989.32
2018-03-06T12:20:13.867Z,989.27
2018-03-06T12:21:13.884Z,989.28
2018-03-06T12:22:13.904Z,989.31
2018-03-06T12:23:13.923Z,989.29
2018-03-06T12:24:13.944Z,989.26
2018-03-06T12:25:13.960Z,989.26
2018-03-06T12:26:13.979Z,989.26
2018-03-06T12:27:13.999Z,989.21
2018-03-06T12:28:14.017Z,989.2
2018-03-06T12:29:14.036Z,989.14
2018-03-06T12:30:14.056Z,989.19
2018-03-06T12:31:14.074Z,989.16
2018-03-06T12:32:14.094Z,989.18
2018-03-06T12:34:14.131Z,989.14
2018-03-06T12:35:14.150Z,989.13
2018-03-06T12:36:14.169Z,989.12
2018-03-06T12:37:14.188Z,989.11
2018-03-06T12:38:14.207Z,989.1
2018-03-06T12:39:14.238Z,989.1
2018-03-06T12:40:14.245Z,989.09
2018-03-06T12:41:14.263Z,989.08
2018-03-06T12:42:14.281Z,989.08
2018-03-06T12:43:14.300Z,989.05
2018-03-06T12:44:14.320Z,989.02
2018-03-06T12:45:14.338Z,989.04
2018-03-06T12:46:14.357Z,988.97
2018-03-06T12:47:14.376Z,989.05
2018-03-06T12:48:14.395Z,988.98
2018-03-06T12:49:14.414Z,988.98
2018-03-06T12:50:14.432Z,988.97
2018-03-06T12:51:14.452Z,988.97
2018-03-06T12:52:14.470Z,988.94
2018-03-06T12:53:14.488Z,988.94
2018-03-06T12:54:14.512Z,988.94
2018-03-06T12:55:14.527Z,988.97
2018-03-06T12:56:14.546Z,988.99
2018-03-06T12:57:14.564Z,988.96
2018-03-06T12:58:14.583Z,988.97
2018-03-06T12:59:14.602Z,988.96
2018-03-06T13:00:14.622Z,988.98
2018-03-06T13:01:14.640Z,988.98
2018-03-06T13:02:14.658Z,988.99
2018-03-06T13:03:14.677Z,988.97
2018-03-06T13:04:14.696Z,988.97
2018-03-06T13:06:14.735Z,988.93
2018-03-06T13:07:14.753Z,988.93
2018-03-06T13:08:14.772Z,988.9
2018-03-06T13:09:14.791Z,988.9
2018-03-06T13:10:14.811Z,988.87
2018-03-06T13:11:14.829Z,988.88
2018-03-06T13:12:14.846Z,988.87